Time;durP1;ratioP1;P1;durP2;ratioP2;P2;SDS_P1;SDS_P2;PMS_P1;PMS_P2;Temp;Humidity;BMP_temperature;BMP_pressure;BME280_temperature;BME280_humidity;BME280_pressure;Samples;Min_cycle;Max_cycle;Signal;HPM_P1;HPM_P2
2021/03/19 00:02:25;;;;;;;12.57;10.17;;;5.30;99.90;;;;;;5071255;28;20668;-60
2021/03/19 00:04:51;;;;;;;13.90;10.30;;;5.40;99.90;;;;;;5071174;28;20233;-60
2021/03/19 00:07:17;;;;;;;13.13;10.20;;;5.40;99.90;;;;;;5071470;28;20213;-61
2021/03/19 00:09:45;;;;;;;11.47;9.80;;;5.50;99.90;;;;;;5071662;28;20730;-60
2021/03/19 00:12:11;;;;;;;10.60;9.30;;;5.60;99.90;;;;;;5071532;28;20208;-60
2021/03/19 00:14:37;;;;;;;12.03;9.20;;;5.70;99.90;;;;;;5071113;28;20225;-61
2021/03/19 00:17:03;;;;;;;11.87;9.10;;;5.80;99.90;;;;;;5071323;28;20204;-60
2021/03/19 00:19:29;;;;;;;13.63;9.40;;;5.90;99.90;;;;;;5071024;28;20228;-60
2021/03/19 00:21:56;;;;;;;12.73;8.90;;;5.90;99.90;;;;;;5071054;28;20277;-60
2021/03/19 00:24:22;;;;;;;12.87;10.07;;;6.00;99.90;;;;;;5070453;28;20228;-60
2021/03/19 00:26:49;;;;;;;14.30;10.80;;;6.00;99.90;;;;;;5070760;28;20587;-60
2021/03/19 00:29:15;;;;;;;13.53;10.33;;;6.00;99.90;;;;;;5071008;28;20212;-60
2021/03/19 00:31:41;;;;;;;13.77;10.07;;;6.00;99.90;;;;;;5071140;28;20695;-60
2021/03/19 00:34:07;;;;;;;11.53;9.80;;;6.10;99.90;;;;;;5070656;28;20259;-60
2021/03/19 00:36:34;;;;;;;14.60;10.87;;;6.10;99.90;;;;;;5070856;28;20212;-60
2021/03/19 00:39:00;;;;;;;13.30;10.80;;;6.10;99.90;;;;;;5070577;28;20229;-60
2021/03/19 00:41:26;;;;;;;12.70;11.03;;;6.20;99.90;;;;;;5071260;28;20205;-60
2021/03/19 00:43:53;;;;;;;13.20;11.30;;;6.20;99.90;;;;;;5070739;28;20220;-60
2021/03/19 00:46:20;;;;;;;14.60;11.23;;;6.20;99.90;;;;;;5070840;28;20216;-60
2021/03/19 00:48:46;;;;;;;16.40;11.37;;;6.10;99.90;;;;;;5070924;28;20201;-60
2021/03/19 00:51:13;;;;;;;13.03;11.07;;;6.10;99.90;;;;;;5070725;28;20671;-61
2021/03/19 00:53:39;;;;;;;14.10;10.90;;;6.00;99.90;;;;;;5070528;28;20225;-60
2021/03/19 00:56:06;;;;;;;18.10;11.83;;;6.00;99.90;;;;;;5070646;28;20205;-61
2021/03/19 00:58:32;;;;;;;13.57;11.00;;;5.90;99.90;;;;;;5070681;28;20225;-60
2021/03/19 01:00:59;;;;;;;13.07;10.43;;;5.90;99.90;;;;;;5070830;28;20254;-60
2021/03/19 01:03:25;;;;;;;12.47;10.73;;;5.90;99.90;;;;;;5070428;28;20638;-61
2021/03/19 01:05:51;;;;;;;12.87;10.47;;;5.90;99.90;;;;;;5070591;28;20201;-61
2021/03/19 01:08:17;;;;;;;15.53;10.90;;;6.00;99.90;;;;;;5070338;28;20212;-60
2021/03/19 01:10:46;;;;;;;11.83;10.07;;;6.00;99.90;;;;;;5071001;28;20390;-61
2021/03/19 01:13:13;;;;;;;14.70;10.57;;;6.00;99.90;;;;;;5070654;28;20228;-61
2021/03/19 01:15:40;;;;;;;14.87;10.17;;;6.00;99.90;;;;;;5070514;28;20216;-61
2021/03/19 01:18:10;;;;;;;14.63;10.77;;;5.90;99.90;;;;;;5070443;28;20220;-60
2021/03/19 01:20:38;;;;;;;14.37;11.03;;;5.90;99.90;;;;;;5070487;28;20205;-60
2021/03/19 01:23:04;;;;;;;16.60;10.93;;;5.90;99.90;;;;;;5070256;28;20635;-60
2021/03/19 01:25:31;;;;;;;12.90;10.13;;;5.90;99.90;;;;;;5070407;28;20672;-60
2021/03/19 01:27:57;;;;;;;15.67;10.13;;;5.90;99.90;;;;;;5070556;28;20212;-61
2021/03/19 01:30:25;;;;;;;12.87;11.20;;;5.90;99.90;;;;;;5070748;28;20292;-60
2021/03/19 01:32:52;;;;;;;13.90;10.77;;;5.80;99.90;;;;;;5070431;28;20224;-60
2021/03/19 01:35:21;;;;;;;12.73;11.37;;;5.80;99.90;;;;;;5070766;28;20201;-60
2021/03/19 01:37:48;;;;;;;17.13;11.20;;;5.80;99.90;;;;;;5074081;28;20216;-61
2021/03/19 01:40:15;;;;;;;11.57;10.17;;;5.80;99.90;;;;;;5074229;28;20201;-60
2021/03/19 01:42:42;;;;;;;12.70;11.23;;;5.80;99.90;;;;;;5074061;28;20212;-60
2021/03/19 01:45:38;;;;;;;13.30;10.90;;;5.80;99.90;;;;;;5073825;28;20221;-61
2021/03/19 01:48:42;;;;;;;14.73;10.57;;;5.70;99.90;;;;;;5073609;28;20239;-60
2021/03/19 01:51:46;;;;;;;13.33;10.67;;;5.70;99.90;;;;;;5073859;28;20212;-61
2021/03/19 01:54:49;;;;;;;15.47;11.60;;;5.70;99.90;;;;;;5073479;28;20225;-60
2021/03/19 01:57:53;;;;;;;14.07;10.87;;;5.60;99.90;;;;;;5073778;28;20224;-60
2021/03/19 02:00:56;;;;;;;14.67;12.27;;;5.60;99.90;;;;;;5073571;28;20200;-60
2021/03/19 02:04:00;;;;;;;17.07;13.67;;;5.50;99.90;;;;;;5073407;28;20232;-60
2021/03/19 02:07:03;;;;;;;17.03;13.57;;;5.30;99.90;;;;;;5073604;28;20204;-60
2021/03/19 02:10:06;;;;;;;15.43;13.07;;;5.30;99.90;;;;;;5073787;28;20212;-60
2021/03/19 02:13:10;;;;;;;17.20;13.30;;;5.20;99.90;;;;;;5073471;28;20676;-61
2021/03/19 02:16:13;;;;;;;16.57;13.20;;;5.20;99.90;;;;;;5073424;28;20204;-60
2021/03/19 02:19:17;;;;;;;18.40;12.33;;;5.20;99.90;;;;;;5073590;28;20228;-60
2021/03/19 02:22:20;;;;;;;15.93;13.33;;;5.20;99.90;;;;;;5073530;28;20216;-60
2021/03/19 02:25:24;;;;;;;20.73;13.57;;;5.20;99.90;;;;;;5072995;28;20598;-60
2021/03/19 02:28:28;;;;;;;16.87;13.67;;;5.20;99.90;;;;;;5073238;28;20212;-60
2021/03/19 02:31:12;;;;;;;14.60;13.00;;;5.20;99.90;;;;;;5073383;28;20209;-60
2021/03/19 02:33:45;;;;;;;16.77;12.80;;;5.30;99.90;;;;;;5072950;28;20316;-60
2021/03/19 02:36:12;;;;;;;15.93;13.53;;;5.30;99.90;;;;;;5073455;28;20607;-58
2021/03/19 02:38:38;;;;;;;15.73;13.90;;;5.30;99.90;;;;;;5073090;28;20235;-60
2021/03/19 02:41:05;;;;;;;16.80;13.80;;;5.30;99.90;;;;;;5073169;28;20205;-60
2021/03/19 02:43:31;;;;;;;16.13;14.20;;;5.30;99.90;;;;;;5072929;28;20229;-60
2021/03/19 02:45:57;;;;;;;20.07;14.90;;;5.40;99.90;;;;;;5073414;28;20205;-60
2021/03/19 02:48:24;;;;;;;17.20;14.07;;;5.40;99.90;;;;;;5072221;28;20609;-60
2021/03/19 02:50:52;;;;;;;18.17;14.53;;;5.40;99.90;;;;;;5072766;28;20684;-60
2021/03/19 02:53:22;;;;;;;22.03;16.40;;;5.40;99.90;;;;;;5072973;28;20412;-60
2021/03/19 02:55:49;;;;;;;19.27;14.67;;;5.40;99.90;;;;;;5073070;28;20208;-60
2021/03/19 02:58:15;;;;;;;20.87;16.07;;;5.30;99.90;;;;;;5072448;28;20266;-60
2021/03/19 03:00:42;;;;;;;23.27;15.37;;;5.20;99.90;;;;;;5073066;28;20219;-60
2021/03/19 03:03:08;;;;;;;20.33;15.33;;;5.00;99.90;;;;;;5072537;28;20209;-60
2021/03/19 03:05:34;;;;;;;19.07;15.60;;;4.90;99.90;;;;;;5096597;22;20228;-63
2021/03/19 03:08:03;;;;;;;21.70;16.20;;;4.90;99.90;;;;;;5073427;28;20579;-61
2021/03/19 03:10:31;;;;;;;22.43;17.13;;;4.90;99.90;;;;;;5073155;28;20212;-61
2021/03/19 03:12:58;;;;;;;21.57;16.27;;;4.90;99.90;;;;;;5073149;28;20205;-61
2021/03/19 03:15:24;;;;;;;20.80;16.53;;;5.00;99.90;;;;;;5072730;28;20229;-62
2021/03/19 03:17:50;;;;;;;21.13;16.20;;;5.00;99.90;;;;;;5073041;28;20208;-62
2021/03/19 03:20:20;;;;;;;20.07;15.93;;;5.00;99.90;;;;;;5073236;28;20231;-62
2021/03/19 03:22:46;;;;;;;18.30;14.60;;;5.00;99.90;;;;;;5072694;28;20687;-62
2021/03/19 03:25:17;;;;;;;16.77;14.67;;;5.00;99.90;;;;;;5072151;28;20228;-62
2021/03/19 03:27:45;;;;;;;18.70;15.57;;;4.80;99.90;;;;;;5072314;28;20212;-62
2021/03/19 03:30:16;;;;;;;16.80;14.63;;;4.60;99.90;;;;;;5072515;28;20262;-62
2021/03/19 03:32:42;;;;;;;20.70;15.57;;;4.40;99.90;;;;;;5072339;28;20680;-62
2021/03/19 03:35:10;;;;;;;20.97;16.47;;;4.40;99.90;;;;;;5072024;28;20221;-61
2021/03/19 03:37:36;;;;;;;17.30;15.13;;;4.50;99.90;;;;;;5072018;28;20212;-62
2021/03/19 03:40:06;;;;;;;19.07;15.10;;;4.60;99.90;;;;;;5071978;28;20220;-62
2021/03/19 03:42:33;;;;;;;18.67;15.80;;;4.70;99.90;;;;;;5071923;28;20211;-62
2021/03/19 03:44:59;;;;;;;18.87;15.20;;;4.60;99.90;;;;;;5072013;28;20236;-62
2021/03/19 03:47:25;;;;;;;19.17;15.67;;;4.60;99.90;;;;;;5072004;28;20211;-62
2021/03/19 03:49:51;;;;;;;20.00;16.57;;;4.70;99.90;;;;;;5072160;28;20204;-61
2021/03/19 03:52:18;;;;;;;19.60;14.93;;;4.80;99.90;;;;;;5072346;28;20200;-61
2021/03/19 03:54:44;;;;;;;17.57;14.70;;;4.80;99.90;;;;;;5071699;28;20225;-62
2021/03/19 03:57:11;;;;;;;18.90;15.07;;;4.90;99.90;;;;;;5071464;28;20201;-62
2021/03/19 03:59:38;;;;;;;20.93;15.17;;;5.00;99.90;;;;;;5071224;28;20221;-63
2021/03/19 04:02:16;;;;;;;19.13;15.43;;;5.00;99.90;;;;;;5071856;28;20209;-62
2021/03/19 04:04:42;;;;;;;17.03;14.57;;;4.90;99.90;;;;;;5071907;28;20239;-63
2021/03/19 04:07:08;;;;;;;21.40;16.83;;;4.90;99.90;;;;;;5075994;28;20205;-62
2021/03/19 04:09:35;;;;;;;21.57;15.53;;;4.80;99.90;;;;;;5071678;28;20197;-62
2021/03/19 04:12:01;;;;;;;19.90;16.77;;;4.80;99.90;;;;;;5071789;28;20208;-62
2021/03/19 04:14:27;;;;;;;20.17;15.43;;;4.80;99.90;;;;;;5071482;28;20225;-63
2021/03/19 04:16:55;;;;;;;24.87;19.43;;;4.80;99.90;;;;;;5071888;28;20234;-63
2021/03/19 04:19:21;;;;;;;20.80;16.13;;;4.80;99.90;;;;;;5071343;28;20229;-62
2021/03/19 04:21:47;;;;;;;19.63;14.73;;;4.80;99.90;;;;;;5071568;28;20204;-62
2021/03/19 04:24:13;;;;;;;19.23;16.40;;;4.80;99.90;;;;;;5070888;28;20232;-63
2021/03/19 04:26:40;;;;;;;19.80;15.97;;;4.90;99.90;;;;;;5071421;28;20208;-63
2021/03/19 04:29:06;;;;;;;23.97;18.27;;;4.90;99.90;;;;;;5071067;28;20204;-63
2021/03/19 04:31:32;;;;;;;20.90;15.73;;;4.90;99.90;;;;;;5070977;28;20584;-62
2021/03/19 04:33:59;;;;;;;18.77;15.50;;;4.90;99.90;;;;;;5071214;28;20229;-61
2021/03/19 04:36:32;;;;;;;20.77;16.47;;;5.00;99.90;;;;;;5071106;28;20228;-62
2021/03/19 04:39:01;;;;;;;24.37;18.93;;;5.00;99.90;;;;;;5071005;28;20229;-63
2021/03/19 04:41:28;;;;;;;20.97;16.43;;;5.10;99.90;;;;;;5071189;28;20211;-62
2021/03/19 04:43:55;;;;;;;23.73;18.90;;;5.10;99.90;;;;;;5070828;28;20231;-63
2021/03/19 04:46:21;;;;;;;20.70;16.23;;;5.10;99.90;;;;;;5071143;28;20212;-62
2021/03/19 04:48:47;;;;;;;17.70;15.47;;;5.10;99.90;;;;;;5070866;28;20201;-63
2021/03/19 04:51:14;;;;;;;24.07;16.63;;;5.10;99.90;;;;;;5070953;28;20742;-62
2021/03/19 04:53:40;;;;;;;21.70;17.17;;;5.10;99.90;;;;;;5070666;28;20209;-62
2021/03/19 04:56:06;;;;;;;23.47;17.73;;;5.10;99.90;;;;;;5071084;28;20208;-62
2021/03/19 04:58:33;;;;;;;19.80;16.93;;;4.90;99.90;;;;;;5070730;28;20220;-62
2021/03/19 05:00:59;;;;;;;21.03;17.30;;;4.90;99.90;;;;;;5071736;28;20216;-62
2021/03/19 05:03:25;;;;;;;26.80;18.17;;;4.80;99.90;;;;;;5070985;28;20326;-63
2021/03/19 05:05:51;;;;;;;20.33;16.53;;;4.60;99.90;;;;;;5071048;28;20274;-62
2021/03/19 05:08:18;;;;;;;21.87;16.23;;;4.40;99.90;;;;;;5071270;28;20201;-62
2021/03/19 05:10:44;;;;;;;20.30;16.70;;;4.20;99.90;;;;;;5072232;28;20201;-63
2021/03/19 05:13:11;;;;;;;20.87;16.90;;;4.00;99.90;;;;;;5076108;28;20262;-62
2021/03/19 05:15:38;;;;;;;21.73;17.07;;;3.90;99.90;;;;;;5075435;28;20700;-62
2021/03/19 05:18:05;;;;;;;20.40;17.10;;;3.90;99.90;;;;;;5076481;28;20204;-62
2021/03/19 05:20:32;;;;;;;21.67;16.77;;;4.00;99.90;;;;;;5075455;28;20255;-62
2021/03/19 05:22:58;;;;;;;21.40;16.60;;;4.00;99.90;;;;;;5075425;28;20205;-62
2021/03/19 05:25:27;;;;;;;19.77;15.87;;;4.10;99.90;;;;;;5074832;28;20580;-61
2021/03/19 05:27:54;;;;;;;20.10;16.43;;;4.10;99.90;;;;;;5075069;28;20215;-61
2021/03/19 05:30:23;;;;;;;21.27;17.27;;;3.90;99.90;;;;;;5075047;28;20235;-61
2021/03/19 05:32:49;;;;;;;21.80;17.83;;;3.70;99.90;;;;;;5074958;28;20586;-61
2021/03/19 05:35:19;;;;;;;22.47;18.03;;;3.70;99.90;;;;;;5075447;28;20228;-62
2021/03/19 05:37:49;;;;;;;22.27;17.70;;;3.70;99.90;;;;;;5075788;28;20213;-63
2021/03/19 05:40:24;;;;;;;21.93;17.47;;;3.70;99.90;;;;;;5076224;28;20235;-62
2021/03/19 05:42:51;;;;;;;24.37;17.73;;;3.70;99.90;;;;;;5076558;28;20204;-61
2021/03/19 05:45:26;;;;;;;26.00;19.43;;;3.80;99.90;;;;;;5076183;28;20275;-61
2021/03/19 05:47:53;;;;;;;24.80;18.70;;;3.90;99.90;;;;;;5076200;28;20209;-61
2021/03/19 05:50:25;;;;;;;24.73;18.03;;;3.90;99.90;;;;;;5076306;28;20208;-62
2021/03/19 05:52:51;;;;;;;24.07;18.67;;;3.90;99.90;;;;;;5075861;28;20212;-62
2021/03/19 05:55:21;;;;;;;25.20;18.63;;;4.00;99.90;;;;;;5075737;28;20254;-60
2021/03/19 05:57:48;;;;;;;21.40;18.27;;;4.10;99.90;;;;;;5075026;28;20216;-62
2021/03/19 06:00:22;;;;;;;24.63;19.00;;;4.20;99.90;;;;;;5075143;28;20233;-61
2021/03/19 06:02:49;;;;;;;21.73;17.67;;;4.40;99.90;;;;;;5075713;28;20216;-62
2021/03/19 06:05:18;;;;;;;26.03;20.33;;;4.50;99.90;;;;;;5075048;28;20241;-61
2021/03/19 06:07:48;;;;;;;23.27;18.97;;;4.70;99.90;;;;;;5074818;28;20209;-62
2021/03/19 06:10:21;;;;;;;24.07;18.37;;;4.90;99.90;;;;;;5075829;28;20204;-61
2021/03/19 06:12:49;;;;;;;23.00;19.10;;;5.10;99.90;;;;;;5075921;28;20665;-62
2021/03/19 06:15:29;;;;;;;20.63;16.37;;;5.20;99.90;;;;;;5074265;28;20728;-63
2021/03/19 06:17:58;;;;;;;24.93;17.33;;;5.40;99.90;;;;;;5074604;28;20468;-62
2021/03/19 06:20:26;;;;;;;23.00;18.63;;;5.40;99.90;;;;;;5075607;28;20227;-62
2021/03/19 06:23:02;;;;;;;22.33;17.20;;;5.50;99.90;;;;;;5074734;28;20208;-62
2021/03/19 06:25:37;;;;;;;21.33;17.23;;;5.60;99.90;;;;;;5075322;28;20225;-62
2021/03/19 06:28:06;;;;;;;25.63;19.63;;;5.80;99.90;;;;;;5074545;28;20208;-62
2021/03/19 06:30:37;;;;;;;32.07;22.93;;;5.90;99.90;;;;;;5074122;28;20200;-63
2021/03/19 06:33:26;;;;;;;20.80;16.83;;;6.00;99.90;;;;;;5073783;28;20354;-63
2021/03/19 06:36:13;;;;;;;21.57;17.30;;;6.20;99.90;;;;;;5073861;28;20258;-63
2021/03/19 06:38:41;;;;;;;24.73;18.37;;;6.30;99.90;;;;;;5073558;28;20696;-63
2021/03/19 06:41:29;;;;;;;21.33;16.43;;;6.30;99.90;;;;;;5073679;28;20204;-63
2021/03/19 06:44:17;;;;;;;22.90;18.67;;;6.40;99.90;;;;;;5073603;28;20692;-63
2021/03/19 06:46:49;;;;;;;20.20;15.90;;;6.40;99.90;;;;;;5073415;28;20209;-63
2021/03/19 06:49:16;;;;;;;20.03;16.43;;;6.50;99.90;;;;;;5073449;28;20201;-63
2021/03/19 06:51:44;;;;;;;21.60;16.53;;;6.60;99.90;;;;;;5073281;28;20209;-63
2021/03/19 06:54:12;;;;;;;21.93;16.10;;;6.60;99.90;;;;;;5072685;28;20298;-64
2021/03/19 06:56:40;;;;;;;19.53;16.93;;;6.70;99.90;;;;;;5073297;28;20207;-63
2021/03/19 06:59:21;;;;;;;23.90;18.57;;;6.70;99.90;;;;;;5073396;28;20224;-62
2021/03/19 07:01:48;;;;;;;24.57;18.53;;;6.70;99.90;;;;;;5073345;28;20212;-63
2021/03/19 07:04:38;;;;;;;27.23;19.90;;;6.70;99.90;;;;;;5072607;28;20236;-63
2021/03/19 07:07:19;;;;;;;22.50;16.47;;;6.80;99.90;;;;;;5073217;28;20208;-62
2021/03/19 07:09:57;;;;;;;18.03;15.90;;;6.90;99.90;;;;;;5072918;28;20208;-63
2021/03/19 07:12:41;;;;;;;18.57;15.60;;;7.00;99.90;;;;;;5073190;28;20614;-63
2021/03/19 07:15:27;;;;;;;19.40;14.70;;;7.10;99.90;;;;;;5072974;28;20252;-63
2021/03/19 07:17:58;;;;;;;19.60;15.30;;;7.10;99.90;;;;;;5073300;28;20227;-63
2021/03/19 07:20:41;;;;;;;21.03;15.00;;;6.90;99.90;;;;;;5072799;28;20228;-63
2021/03/19 07:23:14;;;;;;;16.77;14.33;;;6.60;99.90;;;;;;5072578;28;20216;-63
2021/03/19 07:26:01;;;;;;;18.57;15.70;;;6.60;99.90;;;;;;5072657;28;20327;-63
2021/03/19 07:28:50;;;;;;;17.80;14.23;;;6.70;99.90;;;;;;5072609;28;20688;-63
2021/03/19 07:31:40;;;;;;;15.23;13.43;;;6.90;99.90;;;;;;5072511;28;20212;-63
2021/03/19 07:34:27;;;;;;;22.10;14.73;;;6.80;99.90;;;;;;5068866;28;20229;-64
2021/03/19 07:37:01;;;;;;;17.13;13.87;;;6.70;99.90;;;;;;5072437;28;20212;-64
2021/03/19 07:39:56;;;;;;;15.60;13.50;;;6.80;99.90;;;;;;5071783;28;20224;-65
2021/03/19 07:42:48;;;;;;;17.90;14.57;;;6.90;99.90;;;;;;5072149;28;20209;-63
2021/03/19 07:45:22;;;;;;;18.50;14.90;;;7.00;99.90;;;;;;5035393;28;20231;-64
2021/03/19 07:48:09;;;;;;;19.17;14.93;;;7.00;99.90;;;;;;5071759;28;20215;-62
2021/03/19 07:50:45;;;;;;;17.20;13.77;;;7.00;99.90;;;;;;5071824;28;20209;-63
2021/03/19 07:53:44;;;;;;;28.23;18.37;;;7.00;99.90;;;;;;5072147;28;20254;-64
2021/03/19 07:56:17;;;;;;;21.40;16.03;;;7.00;99.90;;;;;;5072318;28;20211;-64
2021/03/19 07:58:52;;;;;;;21.80;16.83;;;7.00;99.90;;;;;;5072113;28;20225;-63
2021/03/19 08:01:24;;;;;;;21.30;15.93;;;7.00;99.90;;;;;;5072466;28;20223;-63
2021/03/19 08:04:00;;;;;;;22.57;15.63;;;7.00;99.90;;;;;;5071938;28;20280;-63
2021/03/19 08:06:34;;;;;;;19.73;15.57;;;7.00;99.90;;;;;;5072195;28;20208;-63
2021/03/19 08:09:05;;;;;;;19.37;15.77;;;7.00;99.90;;;;;;5072096;28;20208;-64
2021/03/19 08:11:38;;;;;;;17.67;15.77;;;7.10;99.90;;;;;;5072050;28;20216;-64
2021/03/19 08:14:21;;;;;;;22.90;16.03;;;7.20;99.90;;;;;;5072652;28;20225;-63
2021/03/19 08:16:54;;;;;;;18.33;15.20;;;7.20;99.90;;;;;;5076341;28;20295;-63
2021/03/19 08:19:29;;;;;;;18.27;15.50;;;7.30;99.90;;;;;;5075287;28;20228;-63
2021/03/19 08:22:06;;;;;;;18.33;15.50;;;7.30;99.90;;;;;;5077684;28;20277;-63
2021/03/19 08:24:50;;;;;;;20.40;16.40;;;7.30;99.90;;;;;;5078714;28;20235;-63
2021/03/19 08:27:26;;;;;;;20.93;16.57;;;7.30;99.90;;;;;;5079437;28;20216;-64
2021/03/19 08:30:01;;;;;;;19.27;15.63;;;7.40;99.90;;;;;;5077205;28;20201;-63
2021/03/19 08:32:47;;;;;;;18.67;15.23;;;7.40;99.90;;;;;;5073791;28;20212;-63
2021/03/19 08:35:22;;;;;;;18.50;15.57;;;7.30;99.90;;;;;;5074121;28;20332;-64
2021/03/19 08:38:03;;;;;;;17.30;15.50;;;7.30;99.90;;;;;;5077394;28;20676;-64
2021/03/19 08:40:34;;;;;;;17.40;14.97;;;7.10;99.90;;;;;;5075440;28;20232;-63
2021/03/19 08:43:04;;;;;;;19.13;15.70;;;7.00;99.90;;;;;;5077087;28;20227;-64
2021/03/19 08:45:31;;;;;;;19.20;15.60;;;6.80;99.90;;;;;;5076965;28;20705;-64
2021/03/19 08:48:01;;;;;;;16.47;14.73;;;6.70;99.90;;;;;;5073383;28;20655;-63
2021/03/19 08:50:34;;;;;;;16.57;14.40;;;6.80;99.90;;;;;;5068879;28;20208;-60
2021/03/19 08:53:23;;;;;;;16.60;13.70;;;7.10;99.90;;;;;;5071160;28;20204;-60
2021/03/19 08:55:50;;;;;;;14.63;12.97;;;6.90;99.90;;;;;;5066555;28;20600;-63
2021/03/19 08:58:48;;;;;;;17.13;14.70;;;6.90;99.90;;;;;;5070548;28;20738;-63
2021/03/19 09:01:46;;;;;;;16.67;14.07;;;7.00;99.90;;;;;;5036284;28;20660;-62
2021/03/19 09:04:13;;;;;;;20.03;13.43;;;7.00;99.90;;;;;;5071571;28;20239;-63
2021/03/19 09:07:19;;;;;;;18.73;13.67;;;7.00;99.90;;;;;;5071291;28;20626;-64
2021/03/19 09:09:47;;;;;;;13.47;11.67;;;7.20;99.90;;;;;;5070808;28;20212;-63
2021/03/19 09:12:23;;;;;;;15.40;12.43;;;7.60;99.90;;;;;;5071047;28;20719;-64
2021/03/19 09:15:09;;;;;;;14.60;11.47;;;7.80;99.90;;;;;;5070599;28;20224;-63
2021/03/19 09:17:51;;;;;;;13.33;10.70;;;7.80;99.90;;;;;;5069670;28;20278;-63
2021/03/19 09:21:03;;;;;;;11.43;10.23;;;7.50;99.90;;;;;;5070872;28;20711;-64
2021/03/19 09:23:48;;;;;;;11.80;10.60;;;7.30;99.90;;;;;;5064902;28;20205;-60
2021/03/19 09:26:37;;;;;;;12.90;10.17;;;7.30;99.90;;;;;;5050259;28;20209;-60
2021/03/19 09:29:06;;;;;;;12.63;9.57;;;7.40;99.90;;;;;;5057046;28;20266;-61
2021/03/19 09:31:43;;;;;;;12.50;10.53;;;7.30;99.90;;;;;;5070549;28;20213;-61
2021/03/19 09:34:17;;;;;;;10.73;9.63;;;7.30;99.90;;;;;;5070301;28;20378;-61
2021/03/19 09:37:32;;;;;;;11.17;9.27;;;7.60;99.90;;;;;;5070362;28;20226;-64
2021/03/19 09:40:12;;;;;;;11.03;9.50;;;7.80;99.90;;;;;;5070295;28;20229;-63
2021/03/19 09:42:57;;;;;;;10.73;8.73;;;7.80;99.90;;;;;;5070441;28;20208;-61
2021/03/19 09:45:30;;;;;;;10.57;9.07;;;7.90;99.90;;;;;;5070297;28;20579;-61
2021/03/19 09:48:16;;;;;;;10.43;9.27;;;8.10;99.90;;;;;;5070580;28;20204;-65
2021/03/19 09:50:54;;;;;;;11.87;9.43;;;8.10;99.90;;;;;;5070305;28;20212;-61
2021/03/19 09:53:29;;;;;;;10.07;9.00;;;8.20;99.90;;;;;;5070265;28;20205;-62
2021/03/19 09:55:57;;;;;;;9.87;8.83;;;8.30;99.90;;;;;;5070668;28;20212;-62
2021/03/19 09:58:35;;;;;;;14.20;10.37;;;8.50;99.90;;;;;;5071656;28;20209;-62
2021/03/19 10:01:04;;;;;;;9.33;6.70;;;8.50;99.90;;;;;;5073903;28;20209;-62
2021/03/19 10:03:40;;;;;;;8.77;6.67;;;8.60;98.50;;;;;;5073830;28;20209;-62
2021/03/19 10:06:20;;;;;;;8.67;6.77;;;8.20;99.10;;;;;;5073906;28;20204;-62
2021/03/19 10:08:46;;;;;;;8.37;6.47;;;7.90;99.10;;;;;;5073826;28;20204;-62
2021/03/19 10:11:14;;;;;;;11.90;7.70;;;7.80;99.40;;;;;;5074167;28;20209;-62
2021/03/19 10:13:41;;;;;;;8.40;6.67;;;7.90;99.70;;;;;;5073670;28;20201;-62
2021/03/19 10:16:08;;;;;;;7.73;6.87;;;7.90;99.70;;;;;;5073537;28;20208;-62
2021/03/19 10:18:37;;;;;;;7.07;6.33;;;8.00;99.50;;;;;;5073700;28;20212;-62
2021/03/19 10:21:07;;;;;;;8.27;6.97;;;7.90;99.30;;;;;;5073674;28;20201;-62
2021/03/19 10:23:36;;;;;;;8.37;7.03;;;7.60;99.90;;;;;;5073638;28;20211;-61
2021/03/19 10:26:09;;;;;;;8.83;6.90;;;7.30;99.90;;;;;;5073360;28;20683;-62
2021/03/19 10:28:38;;;;;;;10.20;8.50;;;6.90;99.90;;;;;;5073394;28;20200;-62
2021/03/19 10:31:09;;;;;;;6.57;5.87;;;6.90;99.90;;;;;;5073890;28;20209;-62
2021/03/19 10:33:55;;;;;;;6.17;4.70;;;6.90;99.90;;;;;;5073741;28;20257;-62
2021/03/19 10:36:35;;;;;;;4.90;4.40;;;6.90;99.90;;;;;;5073585;28;20224;-62
2021/03/19 10:39:08;;;;;;;4.67;4.00;;;6.60;99.90;;;;;;5073393;28;20225;-62
2021/03/19 10:41:41;;;;;;;4.17;3.77;;;6.60;99.90;;;;;;5073648;28;20205;-61
2021/03/19 10:44:13;;;;;;;3.87;3.20;;;6.70;99.90;;;;;;5073329;28;20224;-61
2021/03/19 10:46:43;;;;;;;4.47;4.07;;;6.50;99.90;;;;;;5073737;28;20612;-62
2021/03/19 10:49:15;;;;;;;6.23;4.20;;;6.20;99.90;;;;;;5073818;28;20259;-62
2021/03/19 10:51:45;;;;;;;4.63;3.90;;;5.80;99.90;;;;;;5073105;28;20257;-62
2021/03/19 10:54:20;;;;;;;5.13;3.73;;;5.60;99.90;;;;;;5073150;28;20225;-61
2021/03/19 10:56:49;;;;;;;4.07;3.67;;;5.50;99.90;;;;;;5073137;28;20208;-63
2021/03/19 10:59:29;;;;;;;3.93;3.53;;;5.50;99.90;;;;;;5072932;28;20220;-63
2021/03/19 11:02:19;;;;;;;4.50;3.90;;;5.60;99.90;;;;;;5073177;28;20212;-62
2021/03/19 11:04:49;;;;;;;7.03;4.40;;;5.80;99.90;;;;;;5072345;28;20229;-61
2021/03/19 11:07:18;;;;;;;4.10;3.70;;;6.00;99.90;;;;;;5072950;28;20593;-61
2021/03/19 11:10:15;;;;;;;3.90;3.50;;;6.00;99.90;;;;;;5072361;28;20212;-61
2021/03/19 11:12:45;;;;;;;4.30;3.90;;;6.00;99.90;;;;;;5072625;28;20211;-62
2021/03/19 11:15:15;;;;;;;5.30;4.20;;;5.90;99.90;;;;;;5072385;28;20225;-61
2021/03/19 11:17:42;;;;;;;4.90;4.40;;;5.90;99.90;;;;;;5072311;28;20213;-61
2021/03/19 11:20:12;;;;;;;5.07;4.33;;;5.90;99.90;;;;;;5072239;28;20229;-61
2021/03/19 11:22:41;;;;;;;5.53;4.77;;;6.00;99.90;;;;;;5072520;28;20201;-62
2021/03/19 11:25:50;;;;;;;7.20;5.30;;;5.80;99.90;;;;;;5072168;28;20302;-62
2021/03/19 11:28:31;;;;;;;6.60;5.60;;;5.40;99.90;;;;;;5056781;28;20209;-61
2021/03/19 11:31:17;;;;;;;6.93;5.47;;;5.20;99.90;;;;;;5072357;28;20231;-61
2021/03/19 11:34:05;;;;;;;7.23;5.83;;;5.10;99.90;;;;;;5072160;28;20333;-62
2021/03/19 11:36:49;;;;;;;6.97;5.10;;;5.10;99.90;;;;;;5071929;28;20684;-61
2021/03/19 11:39:33;;;;;;;7.37;5.53;;;5.10;99.90;;;;;;5071811;28;20250;-62
2021/03/19 11:41:59;;;;;;;7.27;5.70;;;5.00;99.90;;;;;;5072432;28;20204;-62
2021/03/19 11:44:25;;;;;;;7.40;6.33;;;5.00;99.90;;;;;;5072033;28;20285;-62
2021/03/19 11:46:51;;;;;;;7.83;6.27;;;5.20;99.90;;;;;;5072470;28;20622;-61
2021/03/19 11:49:18;;;;;;;7.83;6.20;;;5.50;99.90;;;;;;5071504;28;20243;-61
2021/03/19 11:51:45;;;;;;;11.17;6.80;;;5.90;99.90;;;;;;5071784;28;20201;-60
2021/03/19 11:54:11;;;;;;;8.27;6.57;;;6.00;99.90;;;;;;5071613;28;20743;-62
2021/03/19 11:56:38;;;;;;;8.13;6.80;;;6.20;99.90;;;;;;5071967;28;20212;-61
2021/03/19 11:59:09;;;;;;;9.00;7.03;;;6.10;99.90;;;;;;5071990;28;20216;-62
2021/03/19 12:01:36;;;;;;;9.77;6.10;;;6.10;99.90;;;;;;5071631;28;20677;-60
2021/03/19 12:04:03;;;;;;;9.03;7.20;;;6.20;99.90;;;;;;5071631;28;20244;-61
2021/03/19 12:06:31;;;;;;;8.87;7.40;;;6.20;99.90;;;;;;5071976;28;20208;-61
2021/03/19 12:08:57;;;;;;;8.90;7.10;;;6.20;99.90;;;;;;5071607;28;20259;-61
2021/03/19 12:11:27;;;;;;;9.40;7.97;;;6.30;99.90;;;;;;5071964;28;20201;-63
2021/03/19 12:13:55;;;;;;;9.20;7.80;;;6.70;99.90;;;;;;5071699;28;20256;-61
2021/03/19 12:16:22;;;;;;;9.97;7.90;;;7.00;99.90;;;;;;5071921;28;20205;-62
2021/03/19 12:18:49;;;;;;;10.03;7.63;;;7.30;99.90;;;;;;5071414;28;20208;-60
2021/03/19 12:21:15;;;;;;;11.60;8.40;;;7.40;99.90;;;;;;5070802;28;20208;-62
2021/03/19 12:23:42;;;;;;;11.87;8.27;;;7.30;99.90;;;;;;5071685;28;20209;-62
2021/03/19 12:26:09;;;;;;;11.47;8.73;;;7.40;99.90;;;;;;5071514;28;20228;-60
2021/03/19 12:28:35;;;;;;;10.90;8.57;;;7.30;99.90;;;;;;5071206;28;20209;-62
2021/03/19 12:31:01;;;;;;;11.63;8.93;;;7.00;99.90;;;;;;5068854;28;20247;-62
2021/03/19 12:33:33;;;;;;;11.37;8.90;;;6.70;99.90;;;;;;5070932;28;20205;-62
2021/03/19 12:35:59;;;;;;;12.03;9.47;;;6.60;99.90;;;;;;5071313;28;20234;-62
2021/03/19 12:38:26;;;;;;;11.50;9.20;;;6.50;99.90;;;;;;5071247;28;20204;-62
2021/03/19 12:40:55;;;;;;;11.43;9.60;;;6.30;99.90;;;;;;5071280;28;20719;-62
2021/03/19 12:43:22;;;;;;;13.07;10.13;;;6.20;99.90;;;;;;5071424;28;20205;-62
2021/03/19 12:45:48;;;;;;;12.40;9.07;;;6.20;99.90;;;;;;5071094;28;20200;-62
2021/03/19 12:48:15;;;;;;;13.07;9.73;;;6.10;99.90;;;;;;5071030;28;20209;-62
2021/03/19 12:50:41;;;;;;;13.60;10.13;;;6.00;99.90;;;;;;5071478;28;20201;-62
2021/03/19 12:53:12;;;;;;;12.33;9.63;;;6.00;99.90;;;;;;5071200;28;20201;-62
2021/03/19 12:55:38;;;;;;;11.83;9.03;;;6.00;99.90;;;;;;5071152;28;20240;-62
2021/03/19 12:58:05;;;;;;;10.63;8.17;;;6.00;99.90;;;;;;5070881;28;20205;-62
2021/03/19 13:00:36;;;;;;;13.83;9.93;;;6.00;99.90;;;;;;5071092;28;20229;-62
2021/03/19 13:03:03;;;;;;;12.97;9.43;;;5.80;99.90;;;;;;5071271;28;20208;-61
2021/03/19 13:05:30;;;;;;;13.50;10.23;;;5.90;99.90;;;;;;5071232;28;20524;-62
2021/03/19 13:07:57;;;;;;;14.13;10.27;;;5.90;99.90;;;;;;5071174;28;20210;-62
2021/03/19 13:10:25;;;;;;;15.33;9.57;;;6.10;99.90;;;;;;5070628;28;20669;-64
2021/03/19 13:12:52;;;;;;;13.30;9.97;;;6.30;99.90;;;;;;5071046;28;20254;-62